Time;durP1;ratioP1;P1;durP2;ratioP2;P2;SDS_P1;SDS_P2;PMS_P1;PMS_P2;Temp;Humidity;BMP_temperature;BMP_pressure;BME280_temperature;BME280_humidity;BME280_pressure;Samples;Min_cycle;Max_cycle;Signal;HPM_P1;HPM_P2
2022/05/01 00:00:01;;;;;;;3.28;0.82;;;16.00;72.80;;;;;;5067067;28;20025;-60
2022/05/01 00:02:28;;;;;;;3.17;1.00;;;16.10;70.80;;;;;;5050648;28;20025;-60
2022/05/01 00:04:56;;;;;;;2.95;1.25;;;16.20;69.90;;;;;;5065682;28;20055;-58
2022/05/01 00:07:23;;;;;;;4.93;1.05;;;16.40;72.00;;;;;;5065025;28;20019;-60
2022/05/01 00:09:50;;;;;;;5.15;1.40;;;16.60;72.80;;;;;;5067662;28;20036;-60
2022/05/01 00:12:17;;;;;;;3.08;1.25;;;16.80;72.20;;;;;;5064870;28;20053;-61
2022/05/01 00:14:44;;;;;;;3.85;0.88;;;17.00;69.00;;;;;;5069529;28;20025;-60
2022/05/01 00:17:12;;;;;;;4.75;1.35;;;17.10;68.00;;;;;;5069392;28;20103;-60
2022/05/01 00:19:39;;;;;;;3.05;1.30;;;17.30;70.00;;;;;;5066612;28;20020;-61
2022/05/01 00:22:06;;;;;;;4.55;1.05;;;17.40;68.30;;;;;;5062734;28;20032;-60
2022/05/01 00:24:33;;;;;;;4.40;1.13;;;17.60;70.30;;;;;;5067942;28;20021;-60
2022/05/01 00:27:01;;;;;;;4.85;1.38;;;17.80;68.20;;;;;;5067881;28;20098;-60
2022/05/01 00:29:28;;;;;;;7.93;1.60;;;18.00;66.20;;;;;;5050829;28;20017;-61
2022/05/01 00:31:55;;;;;;;4.32;1.30;;;18.00;66.40;;;;;;5048970;28;20051;-66
2022/05/01 00:37:11;;;;;;;6.32;1.60;;;17.90;66.10;;;;;;5052349;28;20600;-68
2022/05/01 00:39:38;;;;;;;4.30;1.00;;;18.00;65.40;;;;;;5066566;28;20481;-68
2022/05/01 00:42:05;;;;;;;4.10;1.30;;;18.00;65.60;;;;;;5049311;28;20097;-67
2022/05/01 00:44:34;;;;;;;3.63;1.38;;;18.00;65.00;;;;;;5068449;28;20029;-69
2022/05/01 00:47:01;;;;;;;3.78;1.30;;;18.10;67.10;;;;;;5048218;28;20111;-68
2022/05/01 00:49:28;;;;;;;5.88;1.20;;;18.20;65.00;;;;;;5049558;28;20499;-69
2022/05/01 00:51:57;;;;;;;1.63;0.90;;;18.30;62.40;;;;;;5052514;28;20052;-67
2022/05/01 00:54:26;;;;;;;3.75;1.00;;;18.50;63.30;;;;;;5062187;28;20080;-69
2022/05/01 00:56:54;;;;;;;2.58;1.30;;;18.70;62.50;;;;;;5048111;28;20017;-68
2022/05/01 00:59:21;;;;;;;3.67;1.20;;;18.90;64.40;;;;;;5047959;28;20025;-69
2022/05/01 01:01:50;;;;;;;4.10;1.15;;;19.10;61.10;;;;;;5066308;28;20024;-65
2022/05/01 01:04:17;;;;;;;5.20;2.22;;;19.10;63.10;;;;;;5060381;28;20025;-66
2022/05/01 01:06:44;;;;;;;5.05;2.28;;;19.10;59.70;;;;;;5060803;28;20122;-66
2022/05/01 01:09:12;;;;;;;4.35;1.98;;;19.10;60.00;;;;;;5068931;28;20025;-67
2022/05/01 01:11:40;;;;;;;7.45;4.88;;;19.20;61.00;;;;;;5039336;28;20031;-67
2022/05/01 01:14:07;;;;;;;3.22;1.25;;;19.30;60.00;;;;;;5046975;28;20111;-67
2022/05/01 01:16:35;;;;;;;2.92;1.02;;;19.50;59.10;;;;;;5067212;28;20473;-65
2022/05/01 01:19:07;;;;;;;4.05;1.23;;;19.60;59.40;;;;;;5069446;28;20477;-67
2022/05/01 01:21:38;;;;;;;4.35;2.30;;;19.60;57.60;;;;;;5068934;28;20029;-66
2022/05/01 01:24:09;;;;;;;3.22;1.45;;;19.50;59.40;;;;;;5069100;28;20020;-67
2022/05/01 01:26:36;;;;;;;2.85;1.02;;;19.70;57.10;;;;;;5065731;28;20033;-66
2022/05/01 01:31:40;;;;;;;2.47;1.10;;;20.10;59.60;;;;;;5057342;28;20016;-67
2022/05/01 01:31:51;;;;;;;6.03;1.17;;;20.30;56.60;;;;;;5048507;28;20468;-65
2022/05/01 01:34:21;;;;;;;3.67;0.88;;;20.50;58.00;;;;;;5068545;28;20033;-66
2022/05/01 01:36:48;;;;;;;3.17;0.90;;;20.70;58.50;;;;;;5062360;28;20063;-66
2022/05/01 01:39:18;;;;;;;5.10;1.50;;;20.70;55.40;;;;;;5048014;28;20021;-64
2022/05/01 01:41:45;;;;;;;3.45;1.20;;;20.80;58.10;;;;;;5070440;28;20107;-64
2022/05/01 01:44:13;;;;;;;7.22;1.02;;;20.80;57.40;;;;;;5072638;28;20028;-64
2022/05/01 01:46:40;;;;;;;4.15;1.88;;;20.70;54.60;;;;;;5071183;28;20028;-64
2022/05/01 01:49:10;;;;;;;3.35;1.00;;;20.70;55.10;;;;;;5054581;28;20032;-64
2022/05/01 01:51:38;;;;;;;4.40;0.88;;;20.80;55.40;;;;;;5072653;28;20107;-64
2022/05/01 01:54:09;;;;;;;11.75;6.53;;;21.00;55.90;;;;;;5072222;28;20074;-64
2022/05/01 01:56:36;;;;;;;30.95;18.80;;;21.30;56.40;;;;;;5071187;28;20450;-64
2022/05/01 01:59:04;;;;;;;4.30;1.52;;;21.40;56.90;;;;;;5055177;28;20074;-64
2022/05/01 02:01:31;;;;;;;4.15;0.90;;;21.30;55.00;;;;;;5072619;28;20016;-63
2022/05/01 02:03:58;;;;;;;2.30;0.63;;;21.30;53.70;;;;;;5072174;28;20425;-63
2022/05/01 02:06:25;;;;;;;1.77;0.93;;;21.10;53.60;;;;;;5072126;28;20054;-63
2022/05/01 02:08:52;;;;;;;4.72;1.08;;;21.10;55.10;;;;;;5070727;28;20032;-64
2022/05/01 02:11:20;;;;;;;3.53;1.35;;;21.10;56.00;;;;;;5054139;28;20025;-64
2022/05/01 02:13:47;;;;;;;3.50;2.05;;;21.30;55.90;;;;;;5071955;28;20076;-64
2022/05/01 02:16:14;;;;;;;2.88;1.30;;;21.30;56.30;;;;;;5071897;28;20029;-64
2022/05/01 02:18:42;;;;;;;5.07;0.90;;;21.40;56.20;;;;;;5070770;28;20494;-64
2022/05/01 02:23:54;;;;;;;1.88;0.80;;;21.50;54.30;;;;;;5072040;28;20496;-63
2022/05/01 02:26:21;;;;;;;3.75;0.80;;;21.60;52.30;;;;;;5071890;28;20025;-64
2022/05/01 02:28:49;;;;;;;2.38;0.75;;;21.60;52.70;;;;;;5071685;28;20017;-64
2022/05/01 02:31:17;;;;;;;3.15;1.10;;;21.60;54.00;;;;;;5070463;28;20021;-64
2022/05/01 02:33:44;;;;;;;3.30;0.60;;;21.70;54.20;;;;;;5071540;28;20169;-64
2022/05/01 02:36:12;;;;;;;4.05;0.93;;;21.60;51.20;;;;;;5070702;28;20388;-64
2022/05/01 02:38:39;;;;;;;3.35;0.85;;;21.50;53.10;;;;;;5071617;28;20524;-64
2022/05/01 02:41:06;;;;;;;3.78;0.75;;;21.50;54.50;;;;;;5071596;28;20473;-64
2022/05/01 02:43:34;;;;;;;3.58;0.80;;;21.50;52.90;;;;;;5072183;28;20025;-64
2022/05/01 02:46:01;;;;;;;2.13;0.75;;;21.50;55.50;;;;;;5069852;28;20081;-64
2022/05/01 02:48:28;;;;;;;2.67;0.73;;;21.50;54.00;;;;;;5071454;28;20108;-65
2022/05/01 02:50:55;;;;;;;5.97;1.42;;;21.60;55.10;;;;;;5053840;28;20020;-64
2022/05/01 02:53:22;;;;;;;2.30;0.77;;;21.60;56.10;;;;;;5070119;28;20115;-65
2022/05/01 02:55:49;;;;;;;5.82;1.20;;;21.60;55.00;;;;;;5071480;28;20191;-65
2022/05/01 02:58:17;;;;;;;6.10;0.80;;;21.60;54.90;;;;;;5071321;28;20027;-64
2022/05/01 03:00:44;;;;;;;5.95;1.27;;;21.40;56.10;;;;;;5069951;28;20017;-65
2022/05/01 03:03:12;;;;;;;5.13;0.90;;;21.40;56.70;;;;;;5053082;28;20036;-65
2022/05/01 03:05:39;;;;;;;7.70;1.25;;;21.40;55.60;;;;;;5071192;28;20082;-65
2022/05/01 03:08:06;;;;;;;5.53;0.90;;;21.50;57.70;;;;;;5071754;28;20020;-65
2022/05/01 03:10:34;;;;;;;5.72;1.42;;;21.60;56.10;;;;;;5071540;28;20020;-64
2022/05/01 03:13:02;;;;;;;5.07;1.05;;;21.70;58.30;;;;;;5064398;28;20036;-64
2022/05/01 03:15:29;;;;;;;5.95;1.40;;;21.80;58.80;;;;;;5060837;28;20113;-63
2022/05/01 03:23:27;;;;;;;8.88;1.77;;;22.20;59.40;;;;;;5056494;28;20051;-64
2022/05/01 03:25:54;;;;;;;7.78;1.90;;;22.20;57.80;;;;;;5062078;28;20020;-64
2022/05/01 03:28:21;;;;;;;9.93;2.00;;;22.20;57.90;;;;;;5057057;28;20127;-63
2022/05/01 03:30:48;;;;;;;5.30;1.35;;;22.20;56.50;;;;;;5059904;28;20027;-64
2022/05/01 03:33:15;;;;;;;6.65;1.90;;;22.20;55.70;;;;;;5068669;28;20091;-63
2022/05/01 03:35:42;;;;;;;7.43;1.85;;;22.10;56.80;;;;;;5069172;28;20032;-66
2022/05/01 03:38:10;;;;;;;6.40;1.85;;;22.10;58.10;;;;;;5070013;28;20059;-66
2022/05/01 03:40:37;;;;;;;4.57;1.73;;;22.10;59.60;;;;;;5063393;28;20025;-66
2022/05/01 03:43:05;;;;;;;13.68;2.15;;;22.20;59.00;;;;;;5052335;28;20029;-66
2022/05/01 03:45:32;;;;;;;9.82;2.30;;;22.20;59.10;;;;;;5054428;28;20044;-67
2022/05/01 03:48:00;;;;;;;7.82;1.73;;;22.30;59.10;;;;;;5062615;28;20386;-66
2022/05/01 03:50:27;;;;;;;11.48;2.13;;;22.30;59.70;;;;;;5061675;28;20029;-63
2022/05/01 03:52:54;;;;;;;5.65;1.45;;;22.40;58.40;;;;;;5070038;28;20020;-65
2022/05/01 03:55:22;;;;;;;10.43;2.55;;;22.40;60.80;;;;;;5069925;28;20392;-64
2022/05/01 03:57:50;;;;;;;8.18;2.35;;;22.40;58.00;;;;;;5065016;28;20028;-65
2022/05/01 04:00:19;;;;;;;8.98;1.95;;;22.20;58.80;;;;;;5064972;28;20097;-65
2022/05/01 04:02:47;;;;;;;10.38;2.25;;;22.00;60.60;;;;;;5059987;28;20032;-65
2022/05/01 04:05:15;;;;;;;14.23;3.40;;;22.00;60.70;;;;;;5064081;28;20173;-65
2022/05/01 04:07:43;;;;;;;11.45;3.88;;;22.00;62.00;;;;;;5034589;28;20040;-65
2022/05/01 04:10:12;;;;;;;12.75;3.33;;;22.10;61.30;;;;;;5051104;28;20037;-65
2022/05/01 04:12:41;;;;;;;7.78;2.30;;;22.20;61.60;;;;;;5057220;28;20394;-65
2022/05/01 04:15:09;;;;;;;10.82;1.60;;;22.30;61.70;;;;;;5067013;28;20047;-64
2022/05/01 04:17:38;;;;;;;6.90;1.90;;;22.30;60.00;;;;;;5063639;28;20017;-66
2022/05/01 04:20:08;;;;;;;13.40;1.85;;;22.30;61.40;;;;;;5061865;28;20115;-65
2022/05/01 04:22:47;;;;;;;11.48;2.10;;;22.20;60.90;;;;;;5068698;28;20032;-65
2022/05/01 04:25:19;;;;;;;8.65;1.95;;;22.20;62.10;;;;;;5053691;28;20036;-65
2022/05/01 04:27:51;;;;;;;20.13;5.20;;;22.20;61.60;;;;;;5050971;28;20028;-65
2022/05/01 04:30:20;;;;;;;10.45;2.25;;;22.10;62.80;;;;;;5053783;28;20029;-65
2022/05/01 04:33:02;;;;;;;11.50;1.95;;;22.10;63.30;;;;;;5049307;28;20130;-65
2022/05/01 04:35:31;;;;;;;6.55;1.42;;;22.10;62.00;;;;;;5060496;28;20173;-65
2022/05/01 04:38:10;;;;;;;5.88;1.67;;;22.00;63.30;;;;;;5060735;28;20278;-65
2022/05/01 04:40:40;;;;;;;7.78;1.33;;;22.00;63.20;;;;;;5067632;28;20056;-65
2022/05/01 04:43:09;;;;;;;9.82;1.67;;;21.90;63.40;;;;;;5060837;28;20508;-66
2022/05/01 04:45:38;;;;;;;14.70;2.50;;;21.90;64.20;;;;;;5049895;28;20029;-65
2022/05/01 04:48:07;;;;;;;7.30;1.25;;;21.80;63.50;;;;;;5049923;28;20032;-66
2022/05/01 04:50:35;;;;;;;12.25;3.17;;;21.80;64.00;;;;;;5049730;28;20021;-65
2022/05/01 04:53:06;;;;;;;13.63;3.00;;;21.80;63.90;;;;;;5055120;28;20040;-65
2022/05/01 04:55:34;;;;;;;4.53;1.80;;;21.60;64.00;;;;;;5063080;28;20021;-66
2022/05/01 04:58:01;;;;;;;6.90;1.65;;;21.60;63.60;;;;;;5049147;28;20107;-65
2022/05/01 05:00:29;;;;;;;10.07;1.35;;;21.50;64.20;;;;;;5049256;28;20511;-65
2022/05/01 05:02:57;;;;;;;6.88;1.55;;;21.50;63.80;;;;;;5049403;28;20017;-66
2022/05/01 05:05:26;;;;;;;7.63;1.30;;;21.50;63.90;;;;;;5049310;28;20067;-66
2022/05/01 05:07:54;;;;;;;10.93;1.67;;;21.50;64.30;;;;;;5049577;28;20385;-65
2022/05/01 05:10:21;;;;;;;11.88;1.50;;;21.40;64.30;;;;;;5050998;28;20424;-64
2022/05/01 05:12:50;;;;;;;10.30;3.10;;;21.40;64.50;;;;;;5052648;28;20030;-64
2022/05/01 05:15:21;;;;;;;9.43;2.03;;;21.30;65.20;;;;;;5051363;28;20021;-64
2022/05/01 05:17:48;;;;;;;6.00;1.88;;;21.30;65.60;;;;;;5051488;28;20020;-64
2022/05/01 05:20:15;;;;;;;7.40;1.35;;;21.30;65.50;;;;;;5051134;28;20378;-64
2022/05/01 05:22:43;;;;;;;13.70;1.50;;;21.30;64.70;;;;;;5051298;28;20047;-64
2022/05/01 05:25:15;;;;;;;7.07;1.52;;;21.30;65.50;;;;;;5051272;28;20115;-64
2022/05/01 05:27:43;;;;;;;11.43;1.40;;;21.20;65.50;;;;;;5051661;28;20382;-64
2022/05/01 05:30:10;;;;;;;9.95;1.77;;;21.30;65.30;;;;;;5053012;28;20110;-64
2022/05/01 05:32:38;;;;;;;11.70;1.73;;;21.20;66.40;;;;;;5053082;28;20072;-64
2022/05/01 05:35:06;;;;;;;4.90;1.17;;;21.20;67.00;;;;;;5053531;28;20083;-64
2022/05/01 05:37:34;;;;;;;7.63;1.67;;;21.10;66.60;;;;;;5053081;28;20013;-65
2022/05/01 05:40:01;;;;;;;9.13;1.27;;;21.10;65.90;;;;;;5054514;28;20094;-64
2022/05/01 05:42:28;;;;;;;9.88;1.90;;;21.00;66.80;;;;;;5053001;28;20559;-65
2022/05/01 05:44:55;;;;;;;14.23;2.55;;;20.90;67.00;;;;;;5052754;28;20033;-64
2022/05/01 05:47:23;;;;;;;10.65;2.40;;;20.90;67.00;;;;;;5052463;28;20107;-64
2022/05/01 05:49:50;;;;;;;8.57;1.33;;;20.80;67.60;;;;;;5052719;28;20549;-64
2022/05/01 05:52:17;;;;;;;8.05;1.30;;;20.70;68.40;;;;;;5051418;28;20037;-65
2022/05/01 05:54:44;;;;;;;8.70;1.48;;;20.60;67.20;;;;;;5052600;28;20083;-65
2022/05/01 05:57:12;;;;;;;9.20;2.47;;;20.50;68.20;;;;;;5052431;28;20076;-64
2022/05/01 05:59:39;;;;;;;10.48;1.60;;;20.40;68.40;;;;;;5052626;28;20025;-64
2022/05/01 06:02:07;;;;;;;6.70;1.10;;;20.40;68.90;;;;;;5052763;28;20398;-65
2022/05/01 06:04:34;;;;;;;6.20;1.65;;;20.30;69.10;;;;;;5052800;28;20025;-65
2022/05/01 06:07:01;;;;;;;11.23;1.77;;;20.20;69.40;;;;;;5052336;28;20028;-65
2022/05/01 06:09:29;;;;;;;15.07;4.25;;;20.20;68.80;;;;;;5052373;28;20029;-64
2022/05/01 06:11:56;;;;;;;10.13;2.15;;;20.10;69.20;;;;;;5052388;28;20021;-64
2022/05/01 06:14:23;;;;;;;9.23;1.88;;;20.10;69.80;;;;;;5050684;28;20037;-65
2022/05/01 06:16:50;;;;;;;9.43;1.60;;;20.00;70.00;;;;;;5051857;28;20029;-65
2022/05/01 06:19:17;;;;;;;7.35;1.88;;;20.00;70.20;;;;;;5052066;28;20039;-65
2022/05/01 06:21:45;;;;;;;6.85;1.60;;;20.00;70.70;;;;;;5051476;28;20532;-65
2022/05/01 06:24:12;;;;;;;10.27;1.42;;;19.90;70.80;;;;;;5052044;28;20112;-64
2022/05/01 06:26:39;;;;;;;7.43;2.30;;;19.80;71.10;;;;;;5051791;28;20021;-64
2022/05/01 06:29:06;;;;;;;8.23;1.40;;;19.70;71.80;;;;;;5061011;28;20508;-65
2022/05/01 06:31:34;;;;;;;11.07;2.25;;;19.60;72.00;;;;;;5060592;28;20036;-65
2022/05/01 06:34:01;;;;;;;12.95;1.70;;;19.50;72.10;;;;;;5067895;28;20025;-65
2022/05/01 06:36:29;;;;;;;8.38;1.40;;;19.40;73.10;;;;;;5051673;28;20029;-64
2022/05/01 06:38:56;;;;;;;12.05;1.95;;;19.40;73.40;;;;;;5059940;28;20033;-64
2022/05/01 06:41:23;;;;;;;6.53;1.70;;;19.30;72.90;;;;;;5062693;28;20031;-64
2022/05/01 06:43:51;;;;;;;7.20;1.58;;;19.20;73.70;;;;;;5065125;28;20029;-65
2022/05/01 06:46:18;;;;;;;10.77;2.65;;;19.10;74.10;;;;;;5052423;28;20024;-65
2022/05/01 06:48:45;;;;;;;9.77;2.20;;;19.00;73.90;;;;;;5056675;28;20028;-64
2022/05/01 06:51:12;;;;;;;11.27;1.85;;;18.90;74.40;;;;;;5069346;28;20060;-65
2022/05/01 06:53:39;;;;;;;8.63;1.80;;;18.70;75.00;;;;;;5071499;28;20035;-66
2022/05/01 06:56:06;;;;;;;7.00;2.03;;;18.60;75.60;;;;;;5066637;28;20027;-64
2022/05/01 06:58:35;;;;;;;9.13;2.55;;;18.40;76.50;;;;;;5058097;28;20104;-66
2022/05/01 07:01:02;;;;;;;4.57;1.98;;;18.30;77.30;;;;;;5063972;28;20042;-62
2022/05/01 07:03:29;;;;;;;13.95;2.10;;;18.30;77.20;;;;;;5061636;28;20095;-63
2022/05/01 07:05:56;;;;;;;7.50;1.77;;;18.20;78.40;;;;;;5050919;28;20651;-63
2022/05/01 07:08:23;;;;;;;7.57;2.50;;;18.00;79.20;;;;;;5052293;28;20401;-63
2022/05/01 07:10:51;;;;;;;11.15;2.60;;;17.90;79.80;;;;;;5068387;28;20414;-62
2022/05/01 07:13:18;;;;;;;7.00;1.83;;;17.80;81.30;;;;;;5062553;28;20118;-62
2022/05/01 07:15:45;;;;;;;7.53;2.30;;;17.70;81.90;;;;;;5059271;28;20020;-63
2022/05/01 07:18:12;;;;;;;6.30;1.33;;;17.70;82.60;;;;;;5058342;28;20020;-62
2022/05/01 07:20:40;;;;;;;5.55;2.53;;;17.70;82.80;;;;;;5053233;28;20504;-62
2022/05/01 07:23:07;;;;;;;8.02;2.15;;;17.70;83.10;;;;;;5051883;28;20029;-61
2022/05/01 07:25:34;;;;;;;9.25;1.88;;;17.70;83.40;;;;;;5052618;28;20532;-64
2022/05/01 07:28:02;;;;;;;7.82;2.08;;;17.70;83.60;;;;;;5050634;28;20028;-65
2022/05/01 07:30:29;;;;;;;11.25;1.98;;;17.70;84.20;;;;;;5050584;28;20021;-65
2022/05/01 07:32:56;;;;;;;7.00;1.70;;;17.70;84.30;;;;;;5050082;28;20068;-64
2022/05/01 07:35:23;;;;;;;9.70;2.47;;;17.70;84.40;;;;;;5050272;28;20372;-64
2022/05/01 07:37:51;;;;;;;5.57;1.42;;;17.80;84.10;;;;;;5047055;28;20414;-64
2022/05/01 07:40:20;;;;;;;11.55;2.08;;;17.80;84.40;;;;;;5048797;28;20025;-64
2022/05/01 07:42:47;;;;;;;8.27;2.03;;;17.80;84.40;;;;;;5048781;28;20478;-64
2022/05/01 07:45:14;;;;;;;10.27;1.70;;;17.90;84.00;;;;;;5048819;28;20021;-64
2022/05/01 07:47:41;;;;;;;12.20;3.00;;;17.90;83.70;;;;;;5048909;28;20025;-64
2022/05/01 07:50:09;;;;;;;6.50;1.63;;;17.90;82.70;;;;;;5048739;28;20185;-64
2022/05/01 07:52:37;;;;;;;9.30;1.90;;;17.80;82.10;;;;;;5050540;28;20555;-65
2022/05/01 07:55:05;;;;;;;11.75;1.98;;;17.80;82.60;;;;;;5050741;28;20029;-64
2022/05/01 07:57:32;;;;;;;8.65;1.92;;;17.70;82.40;;;;;;5050065;28;20051;-64
2022/05/01 07:59:59;;;;;;;6.00;1.50;;;17.60;82.10;;;;;;5050122;28;20078;-64
2022/05/01 08:02:35;;;;;;;4.32;1.85;;;17.50;81.80;;;;;;5049956;28;20038;-64
2022/05/01 08:05:02;;;;;;;9.93;1.88;;;17.40;81.80;;;;;;5050215;28;20094;-65
2022/05/01 08:07:29;;;;;;;6.63;2.22;;;17.30;82.20;;;;;;5050088;28;20025;-65
2022/05/01 08:09:58;;;;;;;5.93;1.40;;;17.10;82.50;;;;;;5050032;28;20627;-65
2022/05/01 08:12:25;;;;;;;7.07;1.55;;;16.90;82.80;;;;;;5050094;28;20035;-64
2022/05/01 08:14:53;;;;;;;9.07;1.60;;;16.80;83.20;;;;;;5049825;28;20032;-64
2022/05/01 08:17:20;;;;;;;7.40;1.80;;;16.60;84.30;;;;;;5049861;28;20096;-64
2022/05/01 08:22:33;;;;;;;6.20;1.85;;;16.40;85.80;;;;;;5049755;28;20074;-63
2022/05/01 08:25:00;;;;;;;9.30;1.33;;;16.30;86.30;;;;;;5049942;28;20108;-64
2022/05/01 08:27:28;;;;;;;5.63;1.80;;;16.20;86.50;;;;;;5049778;28;20028;-64
2022/05/01 08:29:55;;;;;;;9.82;2.50;;;16.00;86.70;;;;;;5049805;28;20100;-65
2022/05/01 08:32:22;;;;;;;5.50;1.50;;;15.90;86.30;;;;;;5049662;28;20045;-66
2022/05/01 08:34:50;;;;;;;8.20;1.90;;;15.70;87.10;;;;;;5048168;28;20037;-63
2022/05/01 08:37:17;;;;;;;7.82;1.77;;;15.60;87.20;;;;;;5049564;28;20469;-63
2022/05/01 08:39:44;;;;;;;9.68;1.80;;;15.40;89.20;;;;;;5049680;28;20036;-63
2022/05/01 08:42:11;;;;;;;6.78;1.52;;;15.40;89.90;;;;;;5049522;28;20027;-63
2022/05/01 08:44:39;;;;;;;5.72;1.38;;;15.30;89.90;;;;;;5049266;28;20104;-63
2022/05/01 08:47:22;;;;;;;8.27;2.15;;;15.30;90.00;;;;;;5049856;28;20108;-62
2022/05/01 08:49:55;;;;;;;10.73;1.33;;;15.20;89.90;;;;;;5049520;28;20480;-63
2022/05/01 08:52:26;;;;;;;8.05;1.38;;;15.10;90.20;;;;;;5049695;28;20457;-63
2022/05/01 08:54:55;;;;;;;11.52;1.70;;;15.00;90.00;;;;;;5050041;28;20025;-62
2022/05/01 08:57:22;;;;;;;10.23;1.88;;;14.90;90.20;;;;;;5049470;28;20017;-63
2022/05/01 08:59:53;;;;;;;8.35;1.58;;;14.80;90.30;;;;;;5047953;28;20539;-63
2022/05/01 09:02:21;;;;;;;9.38;1.67;;;14.70;90.50;;;;;;5049362;28;20032;-63
2022/05/01 09:04:49;;;;;;;9.68;1.58;;;14.60;90.60;;;;;;5049588;28;20367;-64
2022/05/01 09:07:17;;;;;;;10.15;1.85;;;14.60;91.10;;;;;;5049238;28;20024;-63
2022/05/01 09:09:44;;;;;;;4.90;2.15;;;14.60;91.90;;;;;;5049465;28;20497;-63
2022/05/01 09:14:57;;;;;;;7.82;2.03;;;14.60;92.30;;;;;;5049129;28;20558;-63
2022/05/01 09:17:24;;;;;;;8.65;2.58;;;14.60;92.10;;;;;;5047864;28;20078;-63
2022/05/01 09:20:04;;;;;;;7.28;1.63;;;14.60;92.00;;;;;;5047876;28;20032;-63
2022/05/01 09:22:50;;;;;;;8.93;1.70;;;14.50;92.10;;;;;;5049404;28;20021;-64
2022/05/01 09:25:19;;;;;;;3.85;1.50;;;14.50;92.50;;;;;;5049107;28;20421;-64
2022/05/01 09:27:46;;;;;;;7.28;1.70;;;14.50;92.00;;;;;;5049221;28;20104;-64
2022/05/01 09:30:16;;;;;;;6.07;1.80;;;14.40;91.60;;;;;;5049050;28;20017;-64
2022/05/01 09:32:44;;;;;;;8.70;1.92;;;14.30;92.30;;;;;;5048902;28;20034;-63
2022/05/01 09:35:29;;;;;;;10.23;1.70;;;14.30;92.40;;;;;;5049164;28;20033;-64
2022/05/01 09:38:15;;;;;;;8.93;2.10;;;14.20;92.60;;;;;;5049059;28;20373;-63
2022/05/01 09:40:45;;;;;;;5.93;1.65;;;14.10;92.20;;;;;;5049014;28;20512;-64
2022/05/01 09:43:38;;;;;;;5.82;1.63;;;14.00;92.20;;;;;;5048962;28;20033;-63
2022/05/01 09:46:24;;;;;;;7.88;2.53;;;13.90;92.40;;;;;;5049316;28;20017;-64
2022/05/01 09:49:10;;;;;;;12.80;2.88;;;13.80;92.70;;;;;;5048917;28;20040;-63
2022/05/01 09:51:42;;;;;;;6.05;1.92;;;13.70;92.80;;;;;;5049283;28;20481;-63
2022/05/01 09:54:11;;;;;;;6.43;3.50;;;13.70;93.10;;;;;;5049012;28;20065;-64
2022/05/01 09:57:22;;;;;;;6.95;2.28;;;13.60;93.10;;;;;;5049981;28;20067;-64
2022/05/01 09:59:49;;;;;;;9.05;2.17;;;13.50;93.00;;;;;;5044339;28;20508;-64
2022/05/01 10:02:26;;;;;;;12.30;1.95;;;13.40;93.00;;;;;;5052417;28;20359;-64
2022/05/01 10:04:54;;;;;;;7.28;1.90;;;13.40;93.30;;;;;;5051343;28;20025;-64
2022/05/01 10:07:23;;;;;;;11.30;2.50;;;13.30;93.90;;;;;;5051030;28;20017;-64
2022/05/01 10:09:51;;;;;;;6.45;2.30;;;13.20;93.90;;;;;;5050843;28;20051;-64
2022/05/01 10:12:20;;;;;;;11.35;3.20;;;13.20;93.90;;;;;;5052162;28;20017;-65
2022/05/01 10:14:48;;;;;;;8.30;1.85;;;13.20;94.10;;;;;;5052030;28;20063;-64
2022/05/01 10:17:16;;;;;;;10.48;1.58;;;13.10;94.30;;;;;;5052130;28;20017;-64
2022/05/01 10:19:45;;;;;;;9.45;2.72;;;13.10;94.20;;;;;;5052137;28;20029;-64
2022/05/01 10:22:12;;;;;;;8.75;2.30;;;13.10;94.30;;;;;;5052030;28;20036;-64
2022/05/01 10:24:40;;;;;;;9.13;2.30;;;13.00;94.60;;;;;;5052028;28;20017;-64
2022/05/01 10:27:30;;;;;;;14.43;3.67;;;13.00;94.60;;;;;;5052379;28;20421;-64
2022/05/01 10:33:30;;;;;;;9.68;2.38;;;13.00;94.80;;;;;;5051697;28;20051;-64
2022/05/01 10:36:37;;;;;;;9.03;2.47;;;13.00;95.00;;;;;;5051850;28;20068;-65
2022/05/01 10:39:15;;;;;;;13.07;3.10;;;13.00;95.10;;;;;;5051715;28;20508;-64
2022/05/01 10:41:47;;;;;;;22.27;3.85;;;13.10;95.80;;;;;;5051590;28;20029;-64
2022/05/01 10:44:36;;;;;;;14.80;3.17;;;13.30;96.30;;;;;;5051493;28;20039;-63
2022/05/01 10:47:12;;;;;;;16.17;3.42;;;13.50;96.50;;;;;;5051437;28;20017;-64
2022/05/01 10:49:45;;;;;;;15.45;3.75;;;13.60;96.60;;;;;;5051866;28;20068;-64
2022/05/01 10:52:23;;;;;;;17.40;5.47;;;13.80;96.80;;;;;;5051492;28;20032;-65
2022/05/01 10:55:03;;;;;;;17.23;4.57;;;14.00;97.00;;;;;;5050434;28;20070;-65
2022/05/01 10:57:32;;;;;;;13.05;5.05;;;14.10;97.10;;;;;;5050109;28;20110;-63
2022/05/01 11:00:06;;;;;;;14.63;4.65;;;14.30;97.10;;;;;;5051459;28;20108;-63
2022/05/01 11:02:46;;;;;;;13.23;3.85;;;14.50;97.10;;;;;;5051389;28;20025;-64
2022/05/01 11:05:43;;;;;;;11.63;3.38;;;14.60;97.00;;;;;;5049984;28;20482;-64
2022/05/01 11:08:20;;;;;;;10.88;3.53;;;14.70;96.90;;;;;;5051243;28;20074;-64
2022/05/01 11:10:48;;;;;;;12.88;3.17;;;14.80;96.80;;;;;;5049738;28;20029;-63
2022/05/01 11:13:18;;;;;;;17.65;2.90;;;14.90;96.50;;;;;;5050895;28;20029;-64
2022/05/01 11:15:49;;;;;;;9.10;4.38;;;15.00;96.20;;;;;;5050968;28;20021;-64
2022/05/01 11:18:27;;;;;;;12.25;3.70;;;15.10;95.90;;;;;;5051187;28;20067;-64
2022/05/01 11:20:54;;;;;;;16.00;4.90;;;15.10;95.50;;;;;;5049574;28;20112;-64
2022/05/01 11:23:33;;;;;;;18.52;4.10;;;15.20;95.60;;;;;;5049721;28;20025;-64
2022/05/01 11:26:14;;;;;;;15.45;3.45;;;15.30;95.20;;;;;;5050775;28;20633;-64
2022/05/01 11:28:48;;;;;;;13.05;3.78;;;15.30;95.10;;;;;;5050495;28;20020;-64
2022/05/01 11:31:37;;;;;;;15.98;4.80;;;15.30;94.60;;;;;;5051269;28;20021;-64
2022/05/01 11:34:21;;;;;;;15.80;4.80;;;15.30;94.20;;;;;;5058685;28;20585;-64
2022/05/01 11:37:09;;;;;;;9.25;2.95;;;15.30;94.10;;;;;;5070278;28;20066;-65
2022/05/01 11:39:49;;;;;;;8.95;2.70;;;15.30;94.00;;;;;;5057280;28;20020;-64
2022/05/01 11:42:30;;;;;;;22.75;2.95;;;15.20;93.90;;;;;;5069749;28;20025;-64
2022/05/01 11:44:59;;;;;;;7.90;2.92;;;15.10;93.90;;;;;;5069227;28;20024;-63
2022/05/01 11:47:30;;;;;;;21.35;3.55;;;15.10;94.10;;;;;;5069064;28;20389;-63
2022/05/01 11:49:58;;;;;;;18.13;3.63;;;15.10;94.00;;;;;;5068160;28;20061;-63
2022/05/01 11:52:25;;;;;;;8.60;3.17;;;15.10;93.90;;;;;;5051307;28;20028;-64
2022/05/01 11:55:06;;;;;;;6.82;2.40;;;15.00;94.00;;;;;;5050371;28;20025;-63
2022/05/01 12:03:13;;;;;;;9.60;3.47;;;15.00;94.10;;;;;;5066488;28;20073;-62
2022/05/01 12:05:50;;;;;;;21.83;4.40;;;15.00;93.90;;;;;;5065512;28;20110;-65
2022/05/01 12:08:21;;;;;;;13.00;3.63;;;15.10;93.80;;;;;;5052461;28;20139;-60
2022/05/01 12:10:49;;;;;;;10.52;2.97;;;15.00;93.90;;;;;;5063799;28;20031;-60
2022/05/01 12:13:30;;;;;;;17.05;4.20;;;15.00;93.90;;;;;;5061035;28;20024;-60
2022/05/01 12:16:01;;;;;;;10.90;3.58;;;15.00;93.90;;;;;;5069217;28;20032;-61
2022/05/01 12:18:28;;;;;;;11.68;4.57;;;15.00;94.00;;;;;;5061785;28;20033;-61
2022/05/01 12:20:55;;;;;;;15.50;3.22;;;15.00;94.00;;;;;;5052168;28;20385;-61
2022/05/01 12:23:23;;;;;;;11.50;3.45;;;15.00;94.20;;;;;;5053940;28;20033;-61
2022/05/01 12:25:52;;;;;;;13.75;4.18;;;15.00;94.10;;;;;;5052591;28;20801;-62
2022/05/01 12:28:20;;;;;;;23.95;3.47;;;14.90;94.00;;;;;;5056400;28;20037;-61
2022/05/01 12:30:51;;;;;;;13.57;3.15;;;14.90;94.00;;;;;;5055327;28;20500;-61
2022/05/01 12:33:24;;;;;;;15.27;3.20;;;14.90;94.20;;;;;;5054480;28;20456;-61
2022/05/01 12:35:59;;;;;;;12.90;3.20;;;14.80;94.10;;;;;;5062473;28;20123;-61
2022/05/01 12:38:29;;;;;;;13.18;3.33;;;14.80;94.10;;;;;;5068049;28;20089;-61
2022/05/01 12:44:02;;;;;;;9.35;3.70;;;14.70;94.00;;;;;;5068966;28;20028;-60
2022/05/01 12:46:30;;;;;;;12.20;2.92;;;14.60;93.70;;;;;;5068084;28;20028;-61
2022/05/01 12:49:02;;;;;;;10.80;2.80;;;14.50;94.00;;;;;;5064111;28;20100;-61
2022/05/01 12:51:40;;;;;;;11.85;3.00;;;14.50;93.90;;;;;;5049079;28;20017;-61
2022/05/01 12:54:10;;;;;;;14.88;3.00;;;14.30;93.90;;;;;;5054803;28;20039;-61
2022/05/01 12:56:38;;;;;;;10.30;2.92;;;14.30;94.10;;;;;;5065805;28;20384;-60
2022/05/01 12:59:25;;;;;;;13.40;2.90;;;14.20;94.20;;;;;;5054438;28;20024;-60
2022/05/01 13:01:52;;;;;;;12.90;3.95;;;14.20;94.50;;;;;;5059637;28;20398;-61
2022/05/01 13:04:24;;;;;;;16.02;4.32;;;14.20;94.60;;;;;;5065868;28;20016;-61
2022/05/01 13:06:52;;;;;;;20.95;3.80;;;14.10;94.60;;;;;;5059280;28;20036;-61
2022/05/01 13:09:20;;;;;;;13.75;3.92;;;14.10;94.50;;;;;;5063718;28;20031;-61
2022/05/01 13:12:07;;;;;;;14.35;3.55;;;14.00;94.60;;;;;;5067076;28;20029;-60
2022/05/01 13:14:35;;;;;;;11.98;3.72;;;14.00;94.60;;;;;;5060050;28;20040;-61
2022/05/01 13:17:13;;;;;;;19.15;3.70;;;14.00;94.90;;;;;;5061241;28;20025;-61
2022/05/01 13:19:43;;;;;;;9.10;3.53;;;14.00;95.00;;;;;;5057540;28;20481;-62
2022/05/01 13:22:11;;;;;;;17.40;3.63;;;14.00;95.00;;;;;;5065731;28;20032;-62
2022/05/01 13:24:40;;;;;;;15.10;3.58;;;14.00;95.10;;;;;;5060318;28;20021;-61